sensor_id;sensor_type;location;lat;lon;timestamp;temperature;humidity
5226;DHT22;2632;51.666;7.146;2023-06-14T00:01:31;19.10;56.20
5226;DHT22;2632;51.666;7.146;2023-06-14T00:04:01;19.00;56.00
5226;DHT22;2632;51.666;7.146;2023-06-14T00:06:28;19.10;55.50
5226;DHT22;2632;51.666;7.146;2023-06-14T00:08:55;19.00;55.80
5226;DHT22;2632;51.666;7.146;2023-06-14T00:11:22;19.00;55.10
5226;DHT22;2632;51.666;7.146;2023-06-14T00:13:49;19.00;55.10
5226;DHT22;2632;51.666;7.146;2023-06-14T00:16:15;18.90;55.80
5226;DHT22;2632;51.666;7.146;2023-06-14T00:18:43;18.90;55.50
5226;DHT22;2632;51.666;7.146;2023-06-14T00:21:10;18.80;55.90
5226;DHT22;2632;51.666;7.146;2023-06-14T00:23:36;18.90;55.60
5226;DHT22;2632;51.666;7.146;2023-06-14T00:26:03;18.90;56.30
5226;DHT22;2632;51.666;7.146;2023-06-14T00:28:30;18.80;55.10
5226;DHT22;2632;51.666;7.146;2023-06-14T00:30:57;18.80;55.80
5226;DHT22;2632;51.666;7.146;2023-06-14T00:33:23;18.80;55.60
5226;DHT22;2632;51.666;7.146;2023-06-14T00:35:51;18.80;55.80
5226;DHT22;2632;51.666;7.146;2023-06-14T00:38:20;18.70;55.20
5226;DHT22;2632;51.666;7.146;2023-06-14T00:40:47;18.80;56.10
5226;DHT22;2632;51.666;7.146;2023-06-14T00:43:14;18.80;55.40
5226;DHT22;2632;51.666;7.146;2023-06-14T00:45:40;18.80;56.50
5226;DHT22;2632;51.666;7.146;2023-06-14T00:48:08;18.80;55.00
5226;DHT22;2632;51.666;7.146;2023-06-14T00:50:35;18.70;55.80
5226;DHT22;2632;51.666;7.146;2023-06-14T00:53:02;18.60;55.60
5226;DHT22;2632;51.666;7.146;2023-06-14T00:55:30;18.50;55.80
5226;DHT22;2632;51.666;7.146;2023-06-14T00:57:56;18.50;55.70
5226;DHT22;2632;51.666;7.146;2023-06-14T01:00:23;18.50;56.10
5226;DHT22;2632;51.666;7.146;2023-06-14T01:02:50;18.40;56.40
5226;DHT22;2632;51.666;7.146;2023-06-14T01:05:17;18.40;56.90
5226;DHT22;2632;51.666;7.146;2023-06-14T01:08:04;18.30;56.80
5226;DHT22;2632;51.666;7.146;2023-06-14T01:10:45;18.30;57.60
5226;DHT22;2632;51.666;7.146;2023-06-14T01:13:32;18.30;56.50
5226;DHT22;2632;51.666;7.146;2023-06-14T01:15:59;18.20;57.50
5226;DHT22;2632;51.666;7.146;2023-06-14T01:18:28;18.20;56.50
5226;DHT22;2632;51.666;7.146;2023-06-14T01:20:56;18.20;57.20
5226;DHT22;2632;51.666;7.146;2023-06-14T01:23:24;18.30;56.30
5226;DHT22;2632;51.666;7.146;2023-06-14T01:25:51;18.20;56.20
5226;DHT22;2632;51.666;7.146;2023-06-14T01:28:21;18.10;57.40
5226;DHT22;2632;51.666;7.146;2023-06-14T01:30:51;18.10;57.20
5226;DHT22;2632;51.666;7.146;2023-06-14T01:33:22;18.00;57.30
5226;DHT22;2632;51.666;7.146;2023-06-14T01:35:51;18.00;56.40
5226;DHT22;2632;51.666;7.146;2023-06-14T01:38:20;18.10;57.40
5226;DHT22;2632;51.666;7.146;2023-06-14T01:40:48;18.00;57.90
5226;DHT22;2632;51.666;7.146;2023-06-14T01:43:18;18.00;56.50
5226;DHT22;2632;51.666;7.146;2023-06-14T01:45:47;17.90;57.00
5226;DHT22;2632;51.666;7.146;2023-06-14T01:48:15;17.90;58.30
5226;DHT22;2632;51.666;7.146;2023-06-14T01:50:42;17.80;58.90
5226;DHT22;2632;51.666;7.146;2023-06-14T01:53:09;17.70;59.80
5226;DHT22;2632;51.666;7.146;2023-06-14T01:55:37;17.70;59.10
5226;DHT22;2632;51.666;7.146;2023-06-14T01:58:04;17.70;59.20
5226;DHT22;2632;51.666;7.146;2023-06-14T02:00:31;17.70;59.70
5226;DHT22;2632;51.666;7.146;2023-06-14T02:02:58;17.70;58.80
5226;DHT22;2632;51.666;7.146;2023-06-14T02:05:25;17.60;59.30
5226;DHT22;2632;51.666;7.146;2023-06-14T02:07:52;17.60;58.80
5226;DHT22;2632;51.666;7.146;2023-06-14T02:10:20;17.50;58.80
5226;DHT22;2632;51.666;7.146;2023-06-14T02:12:47;17.50;59.00
5226;DHT22;2632;51.666;7.146;2023-06-14T02:15:14;17.50;58.70
5226;DHT22;2632;51.666;7.146;2023-06-14T02:17:44;17.50;58.80
5226;DHT22;2632;51.666;7.146;2023-06-14T02:20:11;17.50;58.60
5226;DHT22;2632;51.666;7.146;2023-06-14T02:22:39;17.40;58.60
5226;DHT22;2632;51.666;7.146;2023-06-14T02:25:06;17.40;58.90
5226;DHT22;2632;51.666;7.146;2023-06-14T02:27:34;17.40;58.70
5226;DHT22;2632;51.666;7.146;2023-06-14T02:30:03;17.30;59.20
5226;DHT22;2632;51.666;7.146;2023-06-14T02:32:29;17.40;60.00
5226;DHT22;2632;51.666;7.146;2023-06-14T02:34:56;17.40;59.30
5226;DHT22;2632;51.666;7.146;2023-06-14T02:37:23;17.30;59.60
5226;DHT22;2632;51.666;7.146;2023-06-14T02:39:50;17.30;59.90
5226;DHT22;2632;51.666;7.146;2023-06-14T02:42:17;17.30;60.50
5226;DHT22;2632;51.666;7.146;2023-06-14T02:44:43;17.20;60.70
5226;DHT22;2632;51.666;7.146;2023-06-14T02:47:11;17.10;60.60
5226;DHT22;2632;51.666;7.146;2023-06-14T02:49:38;17.10;60.30
5226;DHT22;2632;51.666;7.146;2023-06-14T02:52:07;17.10;61.10
5226;DHT22;2632;51.666;7.146;2023-06-14T02:54:35;17.10;61.20
5226;DHT22;2632;51.666;7.146;2023-06-14T02:57:02;17.00;61.50
5226;DHT22;2632;51.666;7.146;2023-06-14T02:59:29;17.00;61.70
5226;DHT22;2632;51.666;7.146;2023-06-14T03:01:56;17.00;61.50
5226;DHT22;2632;51.666;7.146;2023-06-14T03:04:22;17.00;61.70
5226;DHT22;2632;51.666;7.146;2023-06-14T03:06:52;17.00;61.50
5226;DHT22;2632;51.666;7.146;2023-06-14T03:09:20;17.00;61.80
5226;DHT22;2632;51.666;7.146;2023-06-14T03:11:47;17.00;61.50
5226;DHT22;2632;51.666;7.146;2023-06-14T03:14:14;16.90;61.80
5226;DHT22;2632;51.666;7.146;2023-06-14T03:16:40;16.90;62.50
5226;DHT22;2632;51.666;7.146;2023-06-14T03:19:08;16.90;62.50
5226;DHT22;2632;51.666;7.146;2023-06-14T03:21:34;16.90;62.10
5226;DHT22;2632;51.666;7.146;2023-06-14T03:24:01;16.80;62.60
5226;DHT22;2632;51.666;7.146;2023-06-14T03:26:29;16.80;62.00
5226;DHT22;2632;51.666;7.146;2023-06-14T03:28:57;16.70;62.60
5226;DHT22;2632;51.666;7.146;2023-06-14T03:31:24;16.70;62.50
5226;DHT22;2632;51.666;7.146;2023-06-14T03:33:51;16.70;63.00
5226;DHT22;2632;51.666;7.146;2023-06-14T03:36:17;16.70;63.10
5226;DHT22;2632;51.666;7.146;2023-06-14T03:38:44;16.70;63.40
5226;DHT22;2632;51.666;7.146;2023-06-14T03:41:11;16.70;63.00
5226;DHT22;2632;51.666;7.146;2023-06-14T03:43:37;16.60;63.00
5226;DHT22;2632;51.666;7.146;2023-06-14T03:46:04;16.60;63.70
5226;DHT22;2632;51.666;7.146;2023-06-14T03:48:30;16.70;62.90
5226;DHT22;2632;51.666;7.146;2023-06-14T03:50:57;16.60;63.30
5226;DHT22;2632;51.666;7.146;2023-06-14T03:53:27;16.60;63.40
5226;DHT22;2632;51.666;7.146;2023-06-14T03:55:55;16.60;63.10
5226;DHT22;2632;51.666;7.146;2023-06-14T03:58:23;16.60;63.50
5226;DHT22;2632;51.666;7.146;2023-06-14T04:00:50;16.60;64.00
5226;DHT22;2632;51.666;7.146;2023-06-14T04:03:16;16.60;64.40
5226;DHT22;2632;51.666;7.146;2023-06-14T04:05:43;16.60;64.10
5226;DHT22;2632;51.666;7.146;2023-06-14T04:08:11;16.60;64.20
5226;DHT22;2632;51.666;7.146;2023-06-14T04:10:41;16.60;64.30
5226;DHT22;2632;51.666;7.146;2023-06-14T04:13:07;16.60;64.80
5226;DHT22;2632;51.666;7.146;2023-06-14T04:15:34;16.60;63.80
5226;DHT22;2632;51.666;7.146;2023-06-14T04:18:02;16.70;64.10
5226;DHT22;2632;51.666;7.146;2023-06-14T04:20:29;16.60;64.30
5226;DHT22;2632;51.666;7.146;2023-06-14T04:22:57;16.70;64.50
5226;DHT22;2632;51.666;7.146;2023-06-14T04:25:24;16.80;64.80
5226;DHT22;2632;51.666;7.146;2023-06-14T04:27:52;16.80;64.80
5226;DHT22;2632;51.666;7.146;2023-06-14T04:30:19;16.90;64.50
5226;DHT22;2632;51.666;7.146;2023-06-14T04:32:47;16.80;64.10
5226;DHT22;2632;51.666;7.146;2023-06-14T04:35:16;16.90;64.60
5226;DHT22;2632;51.666;7.146;2023-06-14T04:37:44;16.70;64.40
5226;DHT22;2632;51.666;7.146;2023-06-14T04:40:11;16.90;65.00
5226;DHT22;2632;51.666;7.146;2023-06-14T04:42:38;16.90;64.70
5226;DHT22;2632;51.666;7.146;2023-06-14T04:45:07;16.90;65.40
5226;DHT22;2632;51.666;7.146;2023-06-14T04:47:35;17.00;64.70
5226;DHT22;2632;51.666;7.146;2023-06-14T04:50:02;17.10;64.20
5226;DHT22;2632;51.666;7.146;2023-06-14T04:52:30;17.00;63.50
5226;DHT22;2632;51.666;7.146;2023-06-14T04:54:58;16.90;63.90
5226;DHT22;2632;51.666;7.146;2023-06-14T04:57:25;16.90;64.00
5226;DHT22;2632;51.666;7.146;2023-06-14T04:59:52;17.00;63.70
5226;DHT22;2632;51.666;7.146;2023-06-14T05:02:22;17.00;63.70
5226;DHT22;2632;51.666;7.146;2023-06-14T05:04:50;17.10;64.50
5226;DHT22;2632;51.666;7.146;2023-06-14T05:07:17;17.10;64.30
5226;DHT22;2632;51.666;7.146;2023-06-14T05:09:44;17.10;64.20
5226;DHT22;2632;51.666;7.146;2023-06-14T05:12:11;17.10;64.30
5226;DHT22;2632;51.666;7.146;2023-06-14T05:14:38;17.20;64.40
5226;DHT22;2632;51.666;7.146;2023-06-14T05:17:06;17.30;64.70
5226;DHT22;2632;51.666;7.146;2023-06-14T05:19:32;17.30;63.90
5226;DHT22;2632;51.666;7.146;2023-06-14T05:21:59;17.30;64.60
5226;DHT22;2632;51.666;7.146;2023-06-14T05:24:26;17.40;64.20
5226;DHT22;2632;51.666;7.146;2023-06-14T05:26:53;17.50;64.70
5226;DHT22;2632;51.666;7.146;2023-06-14T05:29:20;17.50;65.10
5226;DHT22;2632;51.666;7.146;2023-06-14T05:31:46;17.70;63.90
5226;DHT22;2632;51.666;7.146;2023-06-14T05:34:13;17.60;63.90
5226;DHT22;2632;51.666;7.146;2023-06-14T05:36:40;17.70;64.00
5226;DHT22;2632;51.666;7.146;2023-06-14T05:39:06;17.60;63.20
5226;DHT22;2632;51.666;7.146;2023-06-14T05:41:34;17.70;64.20
5226;DHT22;2632;51.666;7.146;2023-06-14T05:44:01;17.70;65.30
5226;DHT22;2632;51.666;7.146;2023-06-14T05:46:28;17.70;65.00
5226;DHT22;2632;51.666;7.146;2023-06-14T05:48:55;17.80;64.50
5226;DHT22;2632;51.666;7.146;2023-06-14T05:51:22;17.80;63.70
5226;DHT22;2632;51.666;7.146;2023-06-14T05:53:51;18.00;64.90
5226;DHT22;2632;51.666;7.146;2023-06-14T05:56:18;18.10;64.70
5226;DHT22;2632;51.666;7.146;2023-06-14T05:58:45;18.10;64.30
5226;DHT22;2632;51.666;7.146;2023-06-14T06:01:14;18.10;64.00
5226;DHT22;2632;51.666;7.146;2023-06-14T06:03:41;18.10;64.20
5226;DHT22;2632;51.666;7.146;2023-06-14T06:06:13;18.10;64.30
5226;DHT22;2632;51.666;7.146;2023-06-14T06:08:40;18.20;65.10
5226;DHT22;2632;51.666;7.146;2023-06-14T06:11:07;18.20;63.80
5226;DHT22;2632;51.666;7.146;2023-06-14T06:13:35;18.20;63.70
5226;DHT22;2632;51.666;7.146;2023-06-14T06:16:03;18.30;64.00
5226;DHT22;2632;51.666;7.146;2023-06-14T06:18:29;18.40;64.10
5226;DHT22;2632;51.666;7.146;2023-06-14T06:20:56;18.40;63.70
5226;DHT22;2632;51.666;7.146;2023-06-14T06:23:23;18.40;63.70
5226;DHT22;2632;51.666;7.146;2023-06-14T06:25:50;18.50;63.70
5226;DHT22;2632;51.666;7.146;2023-06-14T06:28:17;18.50;64.00
5226;DHT22;2632;51.666;7.146;2023-06-14T06:30:43;18.60;63.90
5226;DHT22;2632;51.666;7.146;2023-06-14T06:33:10;18.70;64.10
5226;DHT22;2632;51.666;7.146;2023-06-14T06:35:38;18.70;62.80
5226;DHT22;2632;51.666;7.146;2023-06-14T06:38:04;18.80;62.50
5226;DHT22;2632;51.666;7.146;2023-06-14T06:40:31;18.80;62.30
5226;DHT22;2632;51.666;7.146;2023-06-14T06:42:58;18.80;62.30
5226;DHT22;2632;51.666;7.146;2023-06-14T06:45:24;18.90;62.60
5226;DHT22;2632;51.666;7.146;2023-06-14T06:47:51;19.00;62.60
5226;DHT22;2632;51.666;7.146;2023-06-14T06:50:18;19.10;61.90
5226;DHT22;2632;51.666;7.146;2023-06-14T06:52:46;19.20;62.10
5226;DHT22;2632;51.666;7.146;2023-06-14T06:55:13;19.30;61.60
5226;DHT22;2632;51.666;7.146;2023-06-14T06:57:41;19.30;60.90
5226;DHT22;2632;51.666;7.146;2023-06-14T07:00:08;19.40;61.30
5226;DHT22;2632;51.666;7.146;2023-06-14T07:02:40;19.40;60.70
5226;DHT22;2632;51.666;7.146;2023-06-14T07:05:07;19.40;60.80
5226;DHT22;2632;51.666;7.146;2023-06-14T07:07:34;19.40;60.80
5226;DHT22;2632;51.666;7.146;2023-06-14T07:10:01;19.40;61.20
5226;DHT22;2632;51.666;7.146;2023-06-14T07:12:31;19.50;60.80
5226;DHT22;2632;51.666;7.146;2023-06-14T07:15:02;19.70;60.70
5226;DHT22;2632;51.666;7.146;2023-06-14T07:17:29;19.80;60.70
5226;DHT22;2632;51.666;7.146;2023-06-14T07:19:55;20.00;59.70
5226;DHT22;2632;51.666;7.146;2023-06-14T07:22:22;19.90;58.60
5226;DHT22;2632;51.666;7.146;2023-06-14T07:24:49;20.00;59.00
5226;DHT22;2632;51.666;7.146;2023-06-14T07:27:16;20.10;58.70
5226;DHT22;2632;51.666;7.146;2023-06-14T07:29:43;20.50;58.30
5226;DHT22;2632;51.666;7.146;2023-06-14T07:32:09;21.30;55.40
5226;DHT22;2632;51.666;7.146;2023-06-14T07:34:36;22.40;51.30
5226;DHT22;2632;51.666;7.146;2023-06-14T07:37:03;23.10;50.20
5226;DHT22;2632;51.666;7.146;2023-06-14T07:39:29;23.50;50.30
5226;DHT22;2632;51.666;7.146;2023-06-14T07:41:56;23.70;49.80
5226;DHT22;2632;51.666;7.146;2023-06-14T07:44:23;23.70;48.40
5226;DHT22;2632;51.666;7.146;2023-06-14T07:46:50;23.60;49.30
5226;DHT22;2632;51.666;7.146;2023-06-14T07:49:16;22.90;51.50
5226;DHT22;2632;51.666;7.146;2023-06-14T07:51:43;22.30;50.90
5226;DHT22;2632;51.666;7.146;2023-06-14T07:54:11;21.90;53.00
5226;DHT22;2632;51.666;7.146;2023-06-14T07:56:38;22.20;52.50
5226;DHT22;2632;51.666;7.146;2023-06-14T07:59:04;22.10;52.80
5226;DHT22;2632;51.666;7.146;2023-06-14T08:01:32;22.10;52.30
5226;DHT22;2632;51.666;7.146;2023-06-14T08:03:59;22.20;51.10
5226;DHT22;2632;51.666;7.146;2023-06-14T08:06:26;22.40;50.90
5226;DHT22;2632;51.666;7.146;2023-06-14T08:08:53;22.50;50.60
5226;DHT22;2632;51.666;7.146;2023-06-14T08:11:20;22.60;50.30
5226;DHT22;2632;51.666;7.146;2023-06-14T08:13:47;22.60;50.50
5226;DHT22;2632;51.666;7.146;2023-06-14T08:16:13;22.90;49.80
5226;DHT22;2632;51.666;7.146;2023-06-14T08:18:40;23.20;48.80
5226;DHT22;2632;51.666;7.146;2023-06-14T08:21:07;23.00;49.00
5226;DHT22;2632;51.666;7.146;2023-06-14T08:23:34;22.90;47.90
5226;DHT22;2632;51.666;7.146;2023-06-14T08:26:02;22.50;48.20
5226;DHT22;2632;51.666;7.146;2023-06-14T08:28:30;22.70;47.60
5226;DHT22;2632;51.666;7.146;2023-06-14T08:30:57;23.10;46.50
5226;DHT22;2632;51.666;7.146;2023-06-14T08:33:23;23.40;45.00
5226;DHT22;2632;51.666;7.146;2023-06-14T08:35:50;23.50;44.90
5226;DHT22;2632;51.666;7.146;2023-06-14T08:38:17;23.90;46.20
5226;DHT22;2632;51.666;7.146;2023-06-14T08:40:45;24.20;45.10
5226;DHT22;2632;51.666;7.146;2023-06-14T08:43:14;24.30;45.00
5226;DHT22;2632;51.666;7.146;2023-06-14T08:45:41;24.40;44.10
5226;DHT22;2632;51.666;7.146;2023-06-14T08:48:08;24.70;44.10
5226;DHT22;2632;51.666;7.146;2023-06-14T08:50:36;24.90;43.60
5226;DHT22;2632;51.666;7.146;2023-06-14T08:53:08;24.50;42.10
5226;DHT22;2632;51.666;7.146;2023-06-14T08:55:38;24.30;41.80
5226;DHT22;2632;51.666;7.146;2023-06-14T08:58:09;24.30;43.20
5226;DHT22;2632;51.666;7.146;2023-06-14T09:00:40;24.50;42.10
5226;DHT22;2632;51.666;7.146;2023-06-14T09:03:09;24.70;42.50
5226;DHT22;2632;51.666;7.146;2023-06-14T09:05:40;24.80;41.00
5226;DHT22;2632;51.666;7.146;2023-06-14T09:08:06;24.60;41.60
5226;DHT22;2632;51.666;7.146;2023-06-14T09:10:33;25.10;41.90
5226;DHT22;2632;51.666;7.146;2023-06-14T09:13:02;25.10;41.50
5226;DHT22;2632;51.666;7.146;2023-06-14T09:15:30;25.00;42.30
5226;DHT22;2632;51.666;7.146;2023-06-14T09:17:57;25.10;43.30
5226;DHT22;2632;51.666;7.146;2023-06-14T09:20:24;24.60;42.90
5226;DHT22;2632;51.666;7.146;2023-06-14T09:22:53;24.70;42.30
5226;DHT22;2632;51.666;7.146;2023-06-14T09:25:20;24.50;42.40
5226;DHT22;2632;51.666;7.146;2023-06-14T09:28:07;24.40;43.20
5226;DHT22;2632;51.666;7.146;2023-06-14T09:30:36;24.60;42.00
5226;DHT22;2632;51.666;7.146;2023-06-14T09:33:03;24.60;43.00
5226;DHT22;2632;51.666;7.146;2023-06-14T09:35:33;24.60;42.30
5226;DHT22;2632;51.666;7.146;2023-06-14T09:38:00;24.30;42.70
5226;DHT22;2632;51.666;7.146;2023-06-14T09:40:28;24.40;42.50
5226;DHT22;2632;51.666;7.146;2023-06-14T09:42:54;24.70;41.70
5226;DHT22;2632;51.666;7.146;2023-06-14T09:45:24;25.10;41.40
5226;DHT22;2632;51.666;7.146;2023-06-14T09:47:55;25.80;41.00
5226;DHT22;2632;51.666;7.146;2023-06-14T09:50:34;25.30;40.50
5226;DHT22;2632;51.666;7.146;2023-06-14T09:53:05;25.40;41.20
5226;DHT22;2632;51.666;7.146;2023-06-14T09:55:35;25.60;41.80
5226;DHT22;2632;51.666;7.146;2023-06-14T09:58:05;25.00;40.90
5226;DHT22;2632;51.666;7.146;2023-06-14T10:00:34;25.40;41.30
5226;DHT22;2632;51.666;7.146;2023-06-14T10:03:08;25.50;41.60
5226;DHT22;2632;51.666;7.146;2023-06-14T10:05:36;25.60;41.40
5226;DHT22;2632;51.666;7.146;2023-06-14T10:08:08;25.60;40.50
5226;DHT22;2632;51.666;7.146;2023-06-14T10:10:39;25.50;40.50
5226;DHT22;2632;51.666;7.146;2023-06-14T10:13:07;25.60;41.10
5226;DHT22;2632;51.666;7.146;2023-06-14T10:16:08;26.00;41.60
5226;DHT22;2632;51.666;7.146;2023-06-14T10:21:33;25.70;40.60
5226;DHT22;2632;51.666;7.146;2023-06-14T10:24:06;25.30;40.80
5226;DHT22;2632;51.666;7.146;2023-06-14T10:26:34;25.90;39.70
5226;DHT22;2632;51.666;7.146;2023-06-14T10:29:07;25.90;40.90
5226;DHT22;2632;51.666;7.146;2023-06-14T10:31:43;26.10;40.50
5226;DHT22;2632;51.666;7.146;2023-06-14T10:34:12;26.00;40.50
5226;DHT22;2632;51.666;7.146;2023-06-14T10:37:01;27.00;39.90
5226;DHT22;2632;51.666;7.146;2023-06-14T10:39:30;26.60;39.20
5226;DHT22;2632;51.666;7.146;2023-06-14T10:41:57;25.70;39.70
5226;DHT22;2632;51.666;7.146;2023-06-14T10:46:55;25.80;40.20
5226;DHT22;2632;51.666;7.146;2023-06-14T10:49:37;26.00;40.50
5226;DHT22;2632;51.666;7.146;2023-06-14T10:52:10;26.30;40.90
5226;DHT22;2632;51.666;7.146;2023-06-14T10:54:58;26.70;39.50
5226;DHT22;2632;51.666;7.146;2023-06-14T10:57:25;26.60;39.20
5226;DHT22;2632;51.666;7.146;2023-06-14T10:59:52;25.90;38.90
5226;DHT22;2632;51.666;7.146;2023-06-14T11:04:51;26.70;39.30
5226;DHT22;2632;51.666;7.146;2023-06-14T11:10:43;26.20;40.10
5226;DHT22;2632;51.666;7.146;2023-06-14T11:13:11;26.50;40.00
5226;DHT22;2632;51.666;7.146;2023-06-14T11:15:39;26.70;38.60
5226;DHT22;2632;51.666;7.146;2023-06-14T11:18:09;26.30;39.50
5226;DHT22;2632;51.666;7.146;2023-06-14T11:20:36;26.30;40.10
5226;DHT22;2632;51.666;7.146;2023-06-14T11:23:04;26.60;40.80
5226;DHT22;2632;51.666;7.146;2023-06-14T11:25:31;27.10;40.20
5226;DHT22;2632;51.666;7.146;2023-06-14T11:27:58;27.00;39.60
5226;DHT22;2632;51.666;7.146;2023-06-14T11:30:25;27.50;39.60
5226;DHT22;2632;51.666;7.146;2023-06-14T11:32:54;27.10;39.70
5226;DHT22;2632;51.666;7.146;2023-06-14T11:35:25;26.80;40.40
5226;DHT22;2632;51.666;7.146;2023-06-14T11:37:56;26.70;39.60
5226;DHT22;2632;51.666;7.146;2023-06-14T11:40:27;26.60;40.40
5226;DHT22;2632;51.666;7.146;2023-06-14T11:43:01;26.80;39.50
5226;DHT22;2632;51.666;7.146;2023-06-14T11:45:29;26.80;39.30
5226;DHT22;2632;51.666;7.146;2023-06-14T11:47:57;26.50;39.70
5226;DHT22;2632;51.666;7.146;2023-06-14T11:50:26;27.10;40.10
5226;DHT22;2632;51.666;7.146;2023-06-14T11:52:56;26.70;38.90
5226;DHT22;2632;51.666;7.146;2023-06-14T11:55:24;26.60;40.20
5226;DHT22;2632;51.666;7.146;2023-06-14T11:57:53;26.60;39.80
5226;DHT22;2632;51.666;7.146;2023-06-14T12:00:24;26.90;39.90
5226;DHT22;2632;51.666;7.146;2023-06-14T12:02:56;27.20;39.30
5226;DHT22;2632;51.666;7.146;2023-06-14T12:05:24;27.00;39.30
5226;DHT22;2632;51.666;7.146;2023-06-14T12:07:59;26.50;40.90
5226;DHT22;2632;51.666;7.146;2023-06-14T12:10:29;27.20;40.10
5226;DHT22;2632;51.666;7.146;2023-06-14T12:12:59;27.10;39.00
5226;DHT22;2632;51.666;7.146;2023-06-14T12:15:29;27.10;40.00
5226;DHT22;2632;51.666;7.146;2023-06-14T12:17:57;27.20;39.90
5226;DHT22;2632;51.666;7.146;2023-06-14T12:20:29;27.20;39.10
5226;DHT22;2632;51.666;7.146;2023-06-14T12:22:58;27.40;38.90
5226;DHT22;2632;51.666;7.146;2023-06-14T12:25:31;27.90;38.80
5226;DHT22;2632;51.666;7.146;2023-06-14T12:28:08;27.50;38.90
5226;DHT22;2632;51.666;7.146;2023-06-14T12:30:36;27.30;39.00
5226;DHT22;2632;51.666;7.146;2023-06-14T12:33:04;27.40;38.90
5226;DHT22;2632;51.666;7.146;2023-06-14T12:35:31;28.30;38.30
5226;DHT22;2632;51.666;7.146;2023-06-14T12:37:58;28.20;37.50
5226;DHT22;2632;51.666;7.146;2023-06-14T12:40:24;28.10;37.60
5226;DHT22;2632;51.666;7.146;2023-06-14T12:42:51;28.10;37.20
5226;DHT22;2632;51.666;7.146;2023-06-14T12:45:18;28.40;37.60
5226;DHT22;2632;51.666;7.146;2023-06-14T12:47:45;28.70;37.60
5226;DHT22;2632;51.666;7.146;2023-06-14T12:50:12;28.70;37.10
5226;DHT22;2632;51.666;7.146;2023-06-14T12:52:39;28.00;37.70
5226;DHT22;2632;51.666;7.146;2023-06-14T12:55:06;28.20;38.40
5226;DHT22;2632;51.666;7.146;2023-06-14T12:57:33;28.30;37.50
5226;DHT22;2632;51.666;7.146;2023-06-14T13:00:03;28.70;37.90
5226;DHT22;2632;51.666;7.146;2023-06-14T13:02:30;28.70;37.10
5226;DHT22;2632;51.666;7.146;2023-06-14T13:04:57;28.10;37.30
5226;DHT22;2632;51.666;7.146;2023-06-14T13:07:25;28.00;38.10
5226;DHT22;2632;51.666;7.146;2023-06-14T13:09:52;27.90;38.30
5226;DHT22;2632;51.666;7.146;2023-06-14T13:12:18;28.00;38.20
5226;DHT22;2632;51.666;7.146;2023-06-14T13:14:45;27.70;38.30
5226;DHT22;2632;51.666;7.146;2023-06-14T13:17:12;28.00;38.10
5226;DHT22;2632;51.666;7.146;2023-06-14T13:19:38;28.20;36.90
5226;DHT22;2632;51.666;7.146;2023-06-14T13:22:05;27.90;38.10
5226;DHT22;2632;51.666;7.146;2023-06-14T13:24:32;28.20;37.60
5226;DHT22;2632;51.666;7.146;2023-06-14T13:26:59;27.60;37.90
5226;DHT22;2632;51.666;7.146;2023-06-14T13:29:26;28.10;38.30
5226;DHT22;2632;51.666;7.146;2023-06-14T13:31:54;28.10;37.10
5226;DHT22;2632;51.666;7.146;2023-06-14T13:34:20;28.20;37.60
5226;DHT22;2632;51.666;7.146;2023-06-14T13:36:48;28.00;37.40
5226;DHT22;2632;51.666;7.146;2023-06-14T13:39:15;27.30;38.20
5226;DHT22;2632;51.666;7.146;2023-06-14T13:41:42;27.30;38.20
5226;DHT22;2632;51.666;7.146;2023-06-14T13:44:09;27.60;38.70
5226;DHT22;2632;51.666;7.146;2023-06-14T13:46:40;27.90;38.10
5226;DHT22;2632;51.666;7.146;2023-06-14T13:49:07;27.80;37.70
5226;DHT22;2632;51.666;7.146;2023-06-14T13:51:34;28.00;37.40
5226;DHT22;2632;51.666;7.146;2023-06-14T13:54:01;28.30;37.40
5226;DHT22;2632;51.666;7.146;2023-06-14T13:56:28;28.40;36.70
5226;DHT22;2632;51.666;7.146;2023-06-14T13:58:54;28.60;36.70
5226;DHT22;2632;51.666;7.146;2023-06-14T14:01:21;28.20;37.40
5226;DHT22;2632;51.666;7.146;2023-06-14T14:03:49;28.20;37.90
5226;DHT22;2632;51.666;7.146;2023-06-14T14:06:16;28.50;37.70
5226;DHT22;2632;51.666;7.146;2023-06-14T14:08:43;29.10;37.40
5226;DHT22;2632;51.666;7.146;2023-06-14T14:11:10;28.00;37.60
5226;DHT22;2632;51.666;7.146;2023-06-14T14:13:37;28.10;37.80
5226;DHT22;2632;51.666;7.146;2023-06-14T14:16:07;28.20;37.60
5226;DHT22;2632;51.666;7.146;2023-06-14T14:18:34;28.20;37.70
5226;DHT22;2632;51.666;7.146;2023-06-14T14:21:01;28.10;37.40
5226;DHT22;2632;51.666;7.146;2023-06-14T14:23:28;28.40;37.00
5226;DHT22;2632;51.666;7.146;2023-06-14T14:25:55;27.70;37.10
5226;DHT22;2632;51.666;7.146;2023-06-14T14:28:22;27.80;36.60
5226;DHT22;2632;51.666;7.146;2023-06-14T14:30:49;28.10;36.30
5226;DHT22;2632;51.666;7.146;2023-06-14T14:33:16;28.40;37.10
5226;DHT22;2632;51.666;7.146;2023-06-14T14:35:44;29.00;36.50
5226;DHT22;2632;51.666;7.146;2023-06-14T14:38:15;29.10;35.60
5226;DHT22;2632;51.666;7.146;2023-06-14T14:40:44;28.80;36.30
5226;DHT22;2632;51.666;7.146;2023-06-14T14:43:11;28.70;36.20
5226;DHT22;2632;51.666;7.146;2023-06-14T14:45:38;28.60;35.90
5226;DHT22;2632;51.666;7.146;2023-06-14T14:48:05;28.80;35.80
5226;DHT22;2632;51.666;7.146;2023-06-14T14:50:33;28.30;36.30
5226;DHT22;2632;51.666;7.146;2023-06-14T14:52:59;28.00;36.60
5226;DHT22;2632;51.666;7.146;2023-06-14T14:55:29;28.60;37.10
5226;DHT22;2632;51.666;7.146;2023-06-14T14:57:57;28.80;34.50
5226;DHT22;2632;51.666;7.146;2023-06-14T15:00:23;28.60;35.50
5226;DHT22;2632;51.666;7.146;2023-06-14T15:02:50;28.50;35.30
5226;DHT22;2632;51.666;7.146;2023-06-14T15:05:17;28.30;35.90
5226;DHT22;2632;51.666;7.146;2023-06-14T15:07:44;28.20;35.40
5226;DHT22;2632;51.666;7.146;2023-06-14T15:10:12;28.30;36.00
5226;DHT22;2632;51.666;7.146;2023-06-14T15:12:38;28.30;36.30
5226;DHT22;2632;51.666;7.146;2023-06-14T15:15:05;28.30;36.50
5226;DHT22;2632;51.666;7.146;2023-06-14T15:17:32;28.20;36.70
5226;DHT22;2632;51.666;7.146;2023-06-14T15:19:59;28.30;36.60
5226;DHT22;2632;51.666;7.146;2023-06-14T15:22:26;28.20;37.50
5226;DHT22;2632;51.666;7.146;2023-06-14T15:24:53;28.30;36.50
5226;DHT22;2632;51.666;7.146;2023-06-14T15:27:19;28.20;37.20
5226;DHT22;2632;51.666;7.146;2023-06-14T15:29:46;28.00;36.50
5226;DHT22;2632;51.666;7.146;2023-06-14T15:32:17;27.80;37.10
5226;DHT22;2632;51.666;7.146;2023-06-14T15:34:43;28.00;37.00
5226;DHT22;2632;51.666;7.146;2023-06-14T15:37:10;28.20;37.30
5226;DHT22;2632;51.666;7.146;2023-06-14T15:39:37;28.00;36.80
5226;DHT22;2632;51.666;7.146;2023-06-14T15:42:04;27.70;37.20
5226;DHT22;2632;51.666;7.146;2023-06-14T15:44:33;27.70;37.00
5226;DHT22;2632;51.666;7.146;2023-06-14T15:47:00;27.50;36.70
5226;DHT22;2632;51.666;7.146;2023-06-14T15:49:26;27.50;37.30
5226;DHT22;2632;51.666;7.146;2023-06-14T15:51:53;27.60;37.40
5226;DHT22;2632;51.666;7.146;2023-06-14T15:54:20;27.70;37.40
5226;DHT22;2632;51.666;7.146;2023-06-14T15:56:49;27.70;37.50
5226;DHT22;2632;51.666;7.146;2023-06-14T15:59:16;27.50;38.40
5226;DHT22;2632;51.666;7.146;2023-06-14T16:01:43;27.50;37.60
5226;DHT22;2632;51.666;7.146;2023-06-14T16:04:09;27.50;37.30
5226;DHT22;2632;51.666;7.146;2023-06-14T16:06:36;27.30;37.20
5226;DHT22;2632;51.666;7.146;2023-06-14T16:09:03;27.20;37.10
5226;DHT22;2632;51.666;7.146;2023-06-14T16:11:30;27.30;37.40
5226;DHT22;2632;51.666;7.146;2023-06-14T16:13:57;27.30;37.20
5226;DHT22;2632;51.666;7.146;2023-06-14T16:16:23;27.40;38.00
5226;DHT22;2632;51.666;7.146;2023-06-14T16:18:50;27.10;38.40